sensor_id;sensor_type;location;lat;lon;timestamp;pressure;altitude;pressure_sealevel;temperature;humidity
66880;BME280;53789;51.392;10.234;2023-04-15T00:00:16;97393.66;;;4.09;77.81
66880;BME280;53789;51.392;10.234;2023-04-15T00:00:37;97383.63;;;4.09;77.89
66880;BME280;53789;51.392;10.234;2023-04-15T00:00:57;97387.94;;;4.10;77.57
66880;BME280;53789;51.392;10.234;2023-04-15T00:01:17;97382.50;;;4.10;77.76
66880;BME280;53789;51.392;10.234;2023-04-15T00:01:38;97384.13;;;4.12;78.12
66880;BME280;53789;51.392;10.234;2023-04-15T00:01:58;97381.41;;;4.12;77.33
66880;BME280;53789;51.392;10.234;2023-04-15T00:02:18;97382.19;;;4.12;77.97
66880;BME280;53789;51.392;10.234;2023-04-15T00:02:39;97381.91;;;4.14;78.15
66880;BME280;53789;51.392;10.234;2023-04-15T00:02:59;97380.81;;;4.15;77.75
66880;BME280;53789;51.392;10.234;2023-04-15T00:03:19;97383.03;;;4.13;77.83
66880;BME280;53789;51.392;10.234;2023-04-15T00:03:39;97380.03;;;4.14;77.07
66880;BME280;53789;51.392;10.234;2023-04-15T00:04:00;97381.91;;;4.14;77.41
66880;BME280;53789;51.392;10.234;2023-04-15T00:04:20;97378.09;;;4.15;77.22
66880;BME280;53789;51.392;10.234;2023-04-15T00:04:40;97379.19;;;4.14;77.07
66880;BME280;53789;51.392;10.234;2023-04-15T00:05:00;97383.56;;;4.15;77.45
66880;BME280;53789;51.392;10.234;2023-04-15T00:05:21;97386.28;;;4.15;76.60
66880;BME280;53789;51.392;10.234;2023-04-15T00:05:41;97380.03;;;4.14;77.03
66880;BME280;53789;51.392;10.234;2023-04-15T00:06:02;97375.38;;;4.15;77.13
66880;BME280;53789;51.392;10.234;2023-04-15T00:06:22;97376.22;;;4.15;77.15
66880;BME280;53789;51.392;10.234;2023-04-15T00:06:49;97379.75;;;4.16;77.15
66880;BME280;53789;51.392;10.234;2023-04-15T00:07:09;97377.81;;;4.16;76.93
66880;BME280;53789;51.392;10.234;2023-04-15T00:07:30;97383.25;;;4.16;76.71
66880;BME280;53789;51.392;10.234;2023-04-15T00:07:50;97372.66;;;4.15;77.23
66880;BME280;53789;51.392;10.234;2023-04-15T00:08:10;97374.28;;;4.16;77.15
66880;BME280;53789;51.392;10.234;2023-04-15T00:08:31;97383.25;;;4.16;76.90
66880;BME280;53789;51.392;10.234;2023-04-15T00:08:51;97379.19;;;4.14;76.58
66880;BME280;53789;51.392;10.234;2023-04-15T00:09:11;97375.16;;;4.11;76.31
66880;BME280;53789;51.392;10.234;2023-04-15T00:09:32;97376.25;;;4.10;76.85
66880;BME280;53789;51.392;10.234;2023-04-15T00:09:52;97375.72;;;4.08;76.68
66880;BME280;53789;51.392;10.234;2023-04-15T00:10:13;97383.06;;;4.07;76.76
66880;BME280;53789;51.392;10.234;2023-04-15T00:10:33;97371.38;;;4.07;76.50
66880;BME280;53789;51.392;10.234;2023-04-15T00:10:53;97373.03;;;4.03;76.75
66880;BME280;53789;51.392;10.234;2023-04-15T00:11:14;97378.75;;;4.01;76.38
66880;BME280;53789;51.392;10.234;2023-04-15T00:11:34;97378.75;;;4.01;76.70
66880;BME280;53789;51.392;10.234;2023-04-15T00:11:54;97371.97;;;3.99;76.59
66880;BME280;53789;51.392;10.234;2023-04-15T00:12:15;97375.53;;;3.99;77.38
66880;BME280;53789;51.392;10.234;2023-04-15T00:12:35;97376.63;;;3.98;76.79
66880;BME280;53789;51.392;10.234;2023-04-15T00:12:55;97374.19;;;3.97;77.21
66880;BME280;53789;51.392;10.234;2023-04-15T00:13:15;97385.06;;;3.97;77.11
66880;BME280;53789;51.392;10.234;2023-04-15T00:13:36;97378.28;;;3.94;76.99
66880;BME280;53789;51.392;10.234;2023-04-15T00:13:56;97377.75;;;3.92;77.23
66880;BME280;53789;51.392;10.234;2023-04-15T00:14:17;97392.16;;;3.92;77.55
66880;BME280;53789;51.392;10.234;2023-04-15T00:14:37;97376.13;;;3.91;78.06
66880;BME280;53789;51.392;10.234;2023-04-15T00:14:57;97387.00;;;3.91;77.68
66880;BME280;53789;51.392;10.234;2023-04-15T00:15:18;97378.03;;;3.90;77.48
66880;BME280;53789;51.392;10.234;2023-04-15T00:15:38;97376.41;;;3.89;77.28
66880;BME280;53789;51.392;10.234;2023-04-15T00:15:59;97382.13;;;3.88;77.52
66880;BME280;53789;51.392;10.234;2023-04-15T00:16:20;97377.78;;;3.87;77.33
66880;BME280;53789;51.392;10.234;2023-04-15T00:16:40;97383.22;;;3.87;78.37
66880;BME280;53789;51.392;10.234;2023-04-15T00:17:01;97376.97;;;3.86;78.12
66880;BME280;53789;51.392;10.234;2023-04-15T00:17:21;97376.97;;;3.86;78.24
66880;BME280;53789;51.392;10.234;2023-04-15T00:17:41;97379.69;;;3.86;78.34
66880;BME280;53789;51.392;10.234;2023-04-15T00:18:02;97377.78;;;3.87;77.61
66880;BME280;53789;51.392;10.234;2023-04-15T00:18:23;97381.63;;;3.86;77.69
66880;BME280;53789;51.392;10.234;2023-04-15T00:18:43;97382.72;;;3.85;78.43
66880;BME280;53789;51.392;10.234;2023-04-15T00:19:04;97381.63;;;3.86;77.80
66880;BME280;53789;51.392;10.234;2023-04-15T00:19:24;97382.72;;;3.85;77.83
66880;BME280;53789;51.392;10.234;2023-04-15T00:19:44;97378.34;;;3.84;77.92
66880;BME280;53789;51.392;10.234;2023-04-15T00:20:05;97376.19;;;3.81;78.20
66880;BME280;53789;51.392;10.234;2023-04-15T00:20:25;97376.50;;;3.79;77.73
66880;BME280;53789;51.392;10.234;2023-04-15T00:20:46;97381.94;;;3.79;78.48
66880;BME280;53789;51.392;10.234;2023-04-15T00:21:06;97380.28;;;3.78;77.68
66880;BME280;53789;51.392;10.234;2023-04-15T00:21:26;97372.69;;;3.75;78.37
66880;BME280;53789;51.392;10.234;2023-04-15T00:21:47;97370.25;;;3.73;78.03
66880;BME280;53789;51.392;10.234;2023-04-15T00:22:07;97370.25;;;3.73;78.56
66880;BME280;53789;51.392;10.234;2023-04-15T00:22:27;97376.00;;;3.72;78.21
66880;BME280;53789;51.392;10.234;2023-04-15T00:22:47;97376.81;;;3.72;77.86
66880;BME280;53789;51.392;10.234;2023-04-15T00:23:08;97371.66;;;3.71;78.52
66880;BME280;53789;51.392;10.234;2023-04-15T00:23:28;97377.38;;;3.69;78.11
66880;BME280;53789;51.392;10.234;2023-04-15T00:23:48;97375.47;;;3.70;78.08
66880;BME280;53789;51.392;10.234;2023-04-15T00:24:08;97374.13;;;3.67;78.14
66880;BME280;53789;51.392;10.234;2023-04-15T00:24:29;97375.22;;;3.66;78.37
66880;BME280;53789;51.392;10.234;2023-04-15T00:24:49;97371.97;;;3.64;78.22
66880;BME280;53789;51.392;10.234;2023-04-15T00:25:09;97373.88;;;3.64;77.94
66880;BME280;53789;51.392;10.234;2023-04-15T00:25:30;97370.63;;;3.62;78.44
66880;BME280;53789;51.392;10.234;2023-04-15T00:25:50;97369.31;;;3.59;78.58
66880;BME280;53789;51.392;10.234;2023-04-15T00:26:10;97367.94;;;3.56;78.75
66880;BME280;53789;51.392;10.234;2023-04-15T00:26:31;97368.75;;;3.57;79.18
66880;BME280;53789;51.392;10.234;2023-04-15T00:26:51;97366.31;;;3.55;78.59
66880;BME280;53789;51.392;10.234;2023-04-15T00:27:11;97367.41;;;3.54;79.09
66880;BME280;53789;51.392;10.234;2023-04-15T00:27:31;97372.31;;;3.52;78.92
66880;BME280;53789;51.392;10.234;2023-04-15T00:27:52;97368.25;;;3.50;78.46
66880;BME280;53789;51.392;10.234;2023-04-15T00:28:12;97368.81;;;3.47;78.94
66880;BME280;53789;51.392;10.234;2023-04-15T00:28:32;97374.25;;;3.47;79.08
66880;BME280;53789;51.392;10.234;2023-04-15T00:28:53;97366.94;;;3.42;79.49
66880;BME280;53789;51.392;10.234;2023-04-15T00:29:13;97371.56;;;3.42;79.30
66880;BME280;53789;51.392;10.234;2023-04-15T00:29:34;97368.31;;;3.39;79.79
66880;BME280;53789;51.392;10.234;2023-04-15T00:29:54;97371.31;;;3.38;79.74
66880;BME280;53789;51.392;10.234;2023-04-15T00:30:14;97364.56;;;3.35;79.36
66880;BME280;53789;51.392;10.234;2023-04-15T00:30:35;97365.91;;;3.33;80.11
66880;BME280;53789;51.392;10.234;2023-04-15T00:30:55;97374.34;;;3.31;80.38
66880;BME280;53789;51.392;10.234;2023-04-15T00:31:15;97359.94;;;3.31;80.31
66880;BME280;53789;51.392;10.234;2023-04-15T00:31:36;97366.19;;;3.31;80.27
66880;BME280;53789;51.392;10.234;2023-04-15T00:31:56;97364.56;;;3.30;80.16
66880;BME280;53789;51.392;10.234;2023-04-15T00:32:16;97368.38;;;3.29;80.38
66880;BME280;53789;51.392;10.234;2023-04-15T00:32:37;97366.75;;;3.28;80.17
66880;BME280;53789;51.392;10.234;2023-04-15T00:32:57;97367.84;;;3.27;79.78
66880;BME280;53789;51.392;10.234;2023-04-15T00:33:17;97368.94;;;3.26;79.78
66880;BME280;53789;51.392;10.234;2023-04-15T00:33:38;97370.84;;;3.26;79.59
66880;BME280;53789;51.392;10.234;2023-04-15T00:33:58;97366.50;;;3.25;80.07
66880;BME280;53789;51.392;10.234;2023-04-15T00:34:18;97362.97;;;3.24;79.96
66880;BME280;53789;51.392;10.234;2023-04-15T00:34:38;97370.31;;;3.24;79.96
66880;BME280;53789;51.392;10.234;2023-04-15T00:34:59;97359.72;;;3.22;80.03
66880;BME280;53789;51.392;10.234;2023-04-15T00:35:19;97364.06;;;3.23;80.10
66880;BME280;53789;51.392;10.234;2023-04-15T00:35:39;97366.78;;;3.23;80.75
66880;BME280;53789;51.392;10.234;2023-04-15T00:36:00;97359.72;;;3.22;80.15
66880;BME280;53789;51.392;10.234;2023-04-15T00:36:20;97367.88;;;3.22;80.20
66880;BME280;53789;51.392;10.234;2023-04-15T00:36:40;97362.72;;;3.20;80.06
66880;BME280;53789;51.392;10.234;2023-04-15T00:37:01;97359.19;;;3.20;80.57
66880;BME280;53789;51.392;10.234;2023-04-15T00:37:21;97363.53;;;3.21;80.63
66880;BME280;53789;51.392;10.234;2023-04-15T00:37:41;97361.63;;;3.21;80.32
66880;BME280;53789;51.392;10.234;2023-04-15T00:38:02;97359.19;;;3.20;80.43
66880;BME280;53789;51.392;10.234;2023-04-15T00:38:23;97366.25;;;3.21;81.00
66880;BME280;53789;51.392;10.234;2023-04-15T00:38:43;97362.72;;;3.20;80.92
66880;BME280;53789;51.392;10.234;2023-04-15T00:39:03;97362.19;;;3.18;80.38
66880;BME280;53789;51.392;10.234;2023-04-15T00:39:23;97364.63;;;3.20;80.55
66880;BME280;53789;51.392;10.234;2023-04-15T00:39:44;97364.63;;;3.20;80.82
66880;BME280;53789;51.392;10.234;2023-04-15T00:40:04;97362.72;;;3.20;81.01
66880;BME280;53789;51.392;10.234;2023-04-15T00:40:25;97368.69;;;3.22;81.07
66880;BME280;53789;51.392;10.234;2023-04-15T00:40:45;97368.69;;;3.22;80.42
66880;BME280;53789;51.392;10.234;2023-04-15T00:41:06;97355.91;;;3.23;80.87
66880;BME280;53789;51.392;10.234;2023-04-15T00:41:26;97364.59;;;3.25;81.09
66880;BME280;53789;51.392;10.234;2023-04-15T00:41:48;97367.31;;;3.25;80.70
66880;BME280;53789;51.392;10.234;2023-04-15T00:42:09;97361.88;;;3.25;81.04
66880;BME280;53789;51.392;10.234;2023-04-15T00:42:29;97368.13;;;3.26;81.00
66880;BME280;53789;51.392;10.234;2023-04-15T00:42:50;97365.41;;;3.26;81.10
66880;BME280;53789;51.392;10.234;2023-04-15T00:43:10;97361.88;;;3.25;80.85
66880;BME280;53789;51.392;10.234;2023-04-15T00:43:31;97359.16;;;3.25;80.34
66880;BME280;53789;51.392;10.234;2023-04-15T00:43:51;97362.69;;;3.26;81.06
66880;BME280;53789;51.392;10.234;2023-04-15T00:44:11;97363.50;;;3.26;80.59
66880;BME280;53789;51.392;10.234;2023-04-15T00:44:32;97363.50;;;3.26;80.47
66880;BME280;53789;51.392;10.234;2023-04-15T00:44:52;97363.50;;;3.26;81.02
66880;BME280;53789;51.392;10.234;2023-04-15T00:45:13;97367.03;;;3.27;81.28
66880;BME280;53789;51.392;10.234;2023-04-15T00:45:33;97367.84;;;3.27;80.50
66880;BME280;53789;51.392;10.234;2023-04-15T00:45:55;97371.38;;;3.28;80.53
66880;BME280;53789;51.392;10.234;2023-04-15T00:46:19;97369.47;;;3.28;80.05
66880;BME280;53789;51.392;10.234;2023-04-15T00:46:40;97370.00;;;3.30;80.31
66880;BME280;53789;51.392;10.234;2023-04-15T00:47:03;97374.34;;;3.31;80.90
66880;BME280;53789;51.392;10.234;2023-04-15T00:47:28;97360.75;;;3.31;80.92
66880;BME280;53789;51.392;10.234;2023-04-15T00:47:49;97368.91;;;3.31;79.99
66880;BME280;53789;51.392;10.234;2023-04-15T00:48:10;97364.56;;;3.30;80.33
66880;BME280;53789;51.392;10.234;2023-04-15T00:48:31;97368.09;;;3.31;80.68
66880;BME280;53789;51.392;10.234;2023-04-15T00:48:53;97367.00;;;3.32;80.63
66880;BME280;53789;51.392;10.234;2023-04-15T00:49:13;97372.44;;;3.32;80.74
66880;BME280;53789;51.392;10.234;2023-04-15T00:49:34;97358.03;;;3.31;80.17
66880;BME280;53789;51.392;10.234;2023-04-15T00:49:54;97367.84;;;3.32;80.35
66880;BME280;53789;51.392;10.234;2023-04-15T00:50:14;97361.56;;;3.32;80.16
66880;BME280;53789;51.392;10.234;2023-04-15T00:50:35;97362.13;;;3.34;80.64
66880;BME280;53789;51.392;10.234;2023-04-15T00:50:55;97366.44;;;3.35;80.38
66880;BME280;53789;51.392;10.234;2023-04-15T00:51:15;97363.72;;;3.35;80.43
66880;BME280;53789;51.392;10.234;2023-04-15T00:51:35;97364.56;;;3.35;80.82
66880;BME280;53789;51.392;10.234;2023-04-15T00:51:56;97365.88;;;3.38;81.16
66880;BME280;53789;51.392;10.234;2023-04-15T00:52:16;97363.16;;;3.38;81.03
66880;BME280;53789;51.392;10.234;2023-04-15T00:52:37;97366.72;;;3.38;80.44
66880;BME280;53789;51.392;10.234;2023-04-15T00:52:58;97365.03;;;3.43;80.67
66880;BME280;53789;51.392;10.234;2023-04-15T00:53:18;97368.03;;;3.41;80.29
66880;BME280;53789;51.392;10.234;2023-04-15T00:53:39;97359.88;;;3.41;80.34
66880;BME280;53789;51.392;10.234;2023-04-15T00:53:59;97361.50;;;3.42;80.52
66880;BME280;53789;51.392;10.234;2023-04-15T00:54:20;97357.16;;;3.41;80.47
66880;BME280;53789;51.392;10.234;2023-04-15T00:54:40;97354.44;;;3.41;80.74
66880;BME280;53789;51.392;10.234;2023-04-15T00:55:00;97356.88;;;3.43;80.29
66880;BME280;53789;51.392;10.234;2023-04-15T00:55:21;97361.50;;;3.42;80.14
66880;BME280;53789;51.392;10.234;2023-04-15T00:55:41;97363.13;;;3.43;80.75
66880;BME280;53789;51.392;10.234;2023-04-15T00:56:01;97355.28;;;3.42;80.83
66880;BME280;53789;51.392;10.234;2023-04-15T00:56:22;97352.53;;;3.42;80.37
66880;BME280;53789;51.392;10.234;2023-04-15T00:56:42;97360.97;;;3.40;80.57
66880;BME280;53789;51.392;10.234;2023-04-15T00:57:04;97357.44;;;3.39;79.77
66880;BME280;53789;51.392;10.234;2023-04-15T00:57:25;97355.84;;;3.38;79.86
66880;BME280;53789;51.392;10.234;2023-04-15T00:57:47;97350.41;;;3.38;80.36
66880;BME280;53789;51.392;10.234;2023-04-15T00:58:07;97359.63;;;3.37;80.40
66880;BME280;53789;51.392;10.234;2023-04-15T00:58:28;97354.47;;;3.36;79.93
66880;BME280;53789;51.392;10.234;2023-04-15T00:58:50;97358.28;;;3.35;79.99
66880;BME280;53789;51.392;10.234;2023-04-15T00:59:10;97354.75;;;3.34;79.73
66880;BME280;53789;51.392;10.234;2023-04-15T00:59:32;97355.84;;;3.33;80.42
66880;BME280;53789;51.392;10.234;2023-04-15T00:59:54;97352.59;;;3.31;80.63
66880;BME280;53789;51.392;10.234;2023-04-15T01:00:15;97356.13;;;3.32;80.78
66880;BME280;53789;51.392;10.234;2023-04-15T01:00:36;97350.69;;;3.32;80.15
66880;BME280;53789;51.392;10.234;2023-04-15T01:00:57;97356.41;;;3.30;80.83
66880;BME280;53789;51.392;10.234;2023-04-15T01:01:20;97353.16;;;3.28;80.16
66880;BME280;53789;51.392;10.234;2023-04-15T01:01:43;97351.25;;;3.29;80.39
66880;BME280;53789;51.392;10.234;2023-04-15T01:02:04;97361.31;;;3.28;80.18
66880;BME280;53789;51.392;10.234;2023-04-15T01:02:24;97353.97;;;3.29;80.84
66880;BME280;53789;51.392;10.234;2023-04-15T01:02:45;97356.69;;;3.29;80.90
66880;BME280;53789;51.392;10.234;2023-04-15T01:03:05;97363.75;;;3.30;80.37
66880;BME280;53789;51.392;10.234;2023-04-15T01:03:26;97360.22;;;3.29;80.39
66880;BME280;53789;51.392;10.234;2023-04-15T01:03:48;97355.59;;;3.30;81.16
66880;BME280;53789;51.392;10.234;2023-04-15T01:04:09;97355.59;;;3.30;80.68
66880;BME280;53789;51.392;10.234;2023-04-15T01:04:29;97357.78;;;3.28;81.21
66880;BME280;53789;51.392;10.234;2023-04-15T01:04:50;97354.78;;;3.29;80.90
66880;BME280;53789;51.392;10.234;2023-04-15T01:05:10;97354.50;;;3.31;81.52
66880;BME280;53789;51.392;10.234;2023-04-15T01:05:31;97349.34;;;3.29;81.07
66880;BME280;53789;51.392;10.234;2023-04-15T01:05:52;97357.22;;;3.31;81.47
66880;BME280;53789;51.392;10.234;2023-04-15T01:06:13;97355.31;;;3.31;81.54
66880;BME280;53789;51.392;10.234;2023-04-15T01:06:33;97356.13;;;3.32;81.04
66880;BME280;53789;51.392;10.234;2023-04-15T01:06:53;97361.56;;;3.32;81.71
66880;BME280;53789;51.392;10.234;2023-04-15T01:07:13;97352.31;;;3.33;81.45
66880;BME280;53789;51.392;10.234;2023-04-15T01:07:34;97358.56;;;3.33;81.52
66880;BME280;53789;51.392;10.234;2023-04-15T01:07:54;97355.84;;;3.33;81.28
66880;BME280;53789;51.392;10.234;2023-04-15T01:08:15;97352.31;;;3.33;81.62
66880;BME280;53789;51.392;10.234;2023-04-15T01:08:35;97355.03;;;3.33;81.32
66880;BME280;53789;51.392;10.234;2023-04-15T01:08:57;97353.97;;;3.34;81.74
66880;BME280;53789;51.392;10.234;2023-04-15T01:09:17;97350.13;;;3.35;81.55
66880;BME280;53789;51.392;10.234;2023-04-15T01:09:38;97348.25;;;3.35;82.09
66880;BME280;53789;51.392;10.234;2023-04-15T01:09:58;97339.53;;;3.33;81.84
66880;BME280;53789;51.392;10.234;2023-04-15T01:10:19;97352.84;;;3.35;81.90
66880;BME280;53789;51.392;10.234;2023-04-15T01:10:39;97346.31;;;3.36;81.90
66880;BME280;53789;51.392;10.234;2023-04-15T01:11:01;97351.75;;;3.36;81.71
66880;BME280;53789;51.392;10.234;2023-04-15T01:11:22;97353.41;;;3.37;81.67
66880;BME280;53789;51.392;10.234;2023-04-15T01:11:43;97351.47;;;3.37;81.50
66880;BME280;53789;51.392;10.234;2023-04-15T01:12:05;97347.97;;;3.37;81.98
66880;BME280;53789;51.392;10.234;2023-04-15T01:12:26;97347.13;;;3.36;81.18
66880;BME280;53789;51.392;10.234;2023-04-15T01:12:47;97351.47;;;3.37;81.88
66880;BME280;53789;51.392;10.234;2023-04-15T01:13:08;97349.56;;;3.38;81.00
66880;BME280;53789;51.392;10.234;2023-04-15T01:13:29;97352.56;;;3.36;81.29
66880;BME280;53789;51.392;10.234;2023-04-15T01:13:51;97344.41;;;3.36;81.56
66880;BME280;53789;51.392;10.234;2023-04-15T01:14:12;97350.69;;;3.37;81.25
66880;BME280;53789;51.392;10.234;2023-04-15T01:14:33;97349.84;;;3.36;81.25
66880;BME280;53789;51.392;10.234;2023-04-15T01:14:54;97353.41;;;3.37;81.02
66880;BME280;53789;51.392;10.234;2023-04-15T01:15:14;97352.56;;;3.36;81.16
66880;BME280;53789;51.392;10.234;2023-04-15T01:15:35;97347.97;;;3.37;81.61
66880;BME280;53789;51.392;10.234;2023-04-15T01:15:56;97345.53;;;3.35;81.42
66880;BME280;53789;51.392;10.234;2023-04-15T01:16:17;97349.03;;;3.36;81.57
66880;BME280;53789;51.392;10.234;2023-04-15T01:16:38;97350.97;;;3.35;81.45
66880;BME280;53789;51.392;10.234;2023-04-15T01:16:58;97348.25;;;3.35;81.45
66880;BME280;53789;51.392;10.234;2023-04-15T01:17:19;97341.97;;;3.35;81.21
66880;BME280;53789;51.392;10.234;2023-04-15T01:17:40;97347.13;;;3.36;81.53
66880;BME280;53789;51.392;10.234;2023-04-15T01:18:01;97344.41;;;3.36;81.86
66880;BME280;53789;51.392;10.234;2023-04-15T01:18:22;97339.81;;;3.37;81.59
66880;BME280;53789;51.392;10.234;2023-04-15T01:18:42;97343.59;;;3.36;81.16
66880;BME280;53789;51.392;10.234;2023-04-15T01:19:05;97348.75;;;3.37;81.53
66880;BME280;53789;51.392;10.234;2023-04-15T01:19:27;97338.97;;;3.36;81.40
66880;BME280;53789;51.392;10.234;2023-04-15T01:19:48;97343.31;;;3.37;81.33
66880;BME280;53789;51.392;10.234;2023-04-15T01:20:08;97344.13;;;3.38;81.87
66880;BME280;53789;51.392;10.234;2023-04-15T01:20:28;97344.13;;;3.38;81.91
66880;BME280;53789;51.392;10.234;2023-04-15T01:20:49;97344.97;;;3.38;81.75
66880;BME280;53789;51.392;10.234;2023-04-15T01:21:09;97341.13;;;3.39;81.67
66880;BME280;53789;51.392;10.234;2023-04-15T01:21:29;97346.28;;;3.41;82.07
66880;BME280;53789;51.392;10.234;2023-04-15T01:21:50;97343.84;;;3.39;81.83
66880;BME280;53789;51.392;10.234;2023-04-15T01:22:10;97342.47;;;3.42;81.72
66880;BME280;53789;51.392;10.234;2023-04-15T01:22:32;97346.81;;;3.43;81.71
66880;BME280;53789;51.392;10.234;2023-04-15T01:22:54;97343.28;;;3.43;81.98
66880;BME280;53789;51.392;10.234;2023-04-15T01:23:14;97341.69;;;3.42;81.71
66880;BME280;53789;51.392;10.234;2023-04-15T01:23:36;97339.75;;;3.42;81.98
66880;BME280;53789;51.392;10.234;2023-04-15T01:23:58;97346.00;;;3.43;81.61
66880;BME280;53789;51.392;10.234;2023-04-15T01:24:19;97343.56;;;3.41;81.77
66880;BME280;53789;51.392;10.234;2023-04-15T01:24:40;97341.69;;;3.42;81.80
66880;BME280;53789;51.392;10.234;2023-04-15T01:25:05;97346.00;;;3.43;81.99
66880;BME280;53789;51.392;10.234;2023-04-15T01:25:32;97343.84;;;3.39;81.79
66880;BME280;53789;51.392;10.234;2023-04-15T01:25:55;97345.75;;;3.39;82.13
66880;BME280;53789;51.392;10.234;2023-04-15T01:26:16;97344.13;;;3.38;81.68
66880;BME280;53789;51.392;10.234;2023-04-15T01:26:38;97343.31;;;3.37;81.97
66880;BME280;53789;51.392;10.234;2023-04-15T01:26:58;97348.75;;;3.37;82.30
66880;BME280;53789;51.392;10.234;2023-04-15T01:27:19;97338.16;;;3.36;82.27
66880;BME280;53789;51.392;10.234;2023-04-15T01:27:40;97340.88;;;3.36;82.12
66880;BME280;53789;51.392;10.234;2023-04-15T01:28:01;97342.53;;;3.37;82.45
66880;BME280;53789;51.392;10.234;2023-04-15T01:28:21;97340.59;;;3.37;82.64
66880;BME280;53789;51.392;10.234;2023-04-15T01:28:42;97338.69;;;3.38;82.50
66880;BME280;53789;51.392;10.234;2023-04-15T01:29:02;97346.56;;;3.39;82.23
66880;BME280;53789;51.392;10.234;2023-04-15T01:29:22;97344.13;;;3.38;82.00
66880;BME280;53789;51.392;10.234;2023-04-15T01:29:43;97339.53;;;3.38;82.17
66880;BME280;53789;51.392;10.234;2023-04-15T01:30:03;97344.13;;;3.38;81.95
66880;BME280;53789;51.392;10.234;2023-04-15T01:30:24;97346.84;;;3.38;81.91
66880;BME280;53789;51.392;10.234;2023-04-15T01:30:45;97343.31;;;3.37;82.44
66880;BME280;53789;51.392;10.234;2023-04-15T01:31:10;97343.31;;;3.37;82.91
66880;BME280;53789;51.392;10.234;2023-04-15T01:31:31;97346.03;;;3.37;82.25
66880;BME280;53789;51.392;10.234;2023-04-15T01:31:54;97343.31;;;3.37;82.39
66880;BME280;53789;51.392;10.234;2023-04-15T01:32:14;97337.88;;;3.37;82.14
66880;BME280;53789;51.392;10.234;2023-04-15T01:32:36;97344.13;;;3.38;82.50
66880;BME280;53789;51.392;10.234;2023-04-15T01:32:56;97333.53;;;3.36;82.90
66880;BME280;53789;51.392;10.234;2023-04-15T01:33:16;97338.16;;;3.36;83.22
66880;BME280;53789;51.392;10.234;2023-04-15T01:33:39;97338.69;;;3.38;83.23
66880;BME280;53789;51.392;10.234;2023-04-15T01:34:00;97335.44;;;3.36;82.66
66880;BME280;53789;51.392;10.234;2023-04-15T01:34:22;97334.66;;;3.35;82.70
66880;BME280;53789;51.392;10.234;2023-04-15T01:34:43;97339.25;;;3.35;82.90
66880;BME280;53789;51.392;10.234;2023-04-15T01:35:04;97344.69;;;3.35;83.16
66880;BME280;53789;51.392;10.234;2023-04-15T01:35:25;97337.66;;;3.34;83.12
66880;BME280;53789;51.392;10.234;2023-04-15T01:35:46;97341.16;;;3.34;83.10
66880;BME280;53789;51.392;10.234;2023-04-15T01:36:07;97336.81;;;3.33;83.01
66880;BME280;53789;51.392;10.234;2023-04-15T01:36:27;97343.09;;;3.34;83.23
66880;BME280;53789;51.392;10.234;2023-04-15T01:36:48;97333.59;;;3.31;83.08
66880;BME280;53789;51.392;10.234;2023-04-15T01:37:08;97337.09;;;3.32;82.79
66880;BME280;53789;51.392;10.234;2023-04-15T01:37:29;97328.94;;;3.32;83.17
66880;BME280;53789;51.392;10.234;2023-04-15T01:37:49;97339.81;;;3.32;83.14
66880;BME280;53789;51.392;10.234;2023-04-15T01:38:10;97336.31;;;3.31;83.10
66880;BME280;53789;51.392;10.234;2023-04-15T01:38:31;97338.19;;;3.31;83.46
66880;BME280;53789;51.392;10.234;2023-04-15T01:38:51;97339.31;;;3.30;83.13
66880;BME280;53789;51.392;10.234;2023-04-15T01:39:11;97334.66;;;3.30;83.25
66880;BME280;53789;51.392;10.234;2023-04-15T01:39:32;97338.19;;;3.31;83.25
66880;BME280;53789;51.392;10.234;2023-04-15T01:39:52;97339.81;;;3.32;83.53
66880;BME280;53789;51.392;10.234;2023-04-15T01:40:12;97336.03;;;3.33;83.54
66880;BME280;53789;51.392;10.234;2023-04-15T01:40:34;97334.94;;;3.34;83.29
66880;BME280;53789;51.392;10.234;2023-04-15T01:40:54;97333.81;;;3.35;83.32
66880;BME280;53789;51.392;10.234;2023-04-15T01:41:14;97337.38;;;3.35;83.13
66880;BME280;53789;51.392;10.234;2023-04-15T01:41:35;97331.94;;;3.35;83.56
66880;BME280;53789;51.392;10.234;2023-04-15T01:41:55;97336.25;;;3.36;83.89
66880;BME280;53789;51.392;10.234;2023-04-15T01:42:15;97334.09;;;3.38;83.87
66880;BME280;53789;51.392;10.234;2023-04-15T01:42:36;97334.88;;;3.39;83.45
66880;BME280;53789;51.392;10.234;2023-04-15T01:42:56;97338.13;;;3.41;84.06
66880;BME280;53789;51.392;10.234;2023-04-15T01:43:16;97329.69;;;3.43;83.55
66880;BME280;53789;51.392;10.234;2023-04-15T01:43:37;97338.38;;;3.45;83.78
66880;BME280;53789;51.392;10.234;2023-04-15T01:43:57;97338.38;;;3.45;83.39
66880;BME280;53789;51.392;10.234;2023-04-15T01:44:17;97335.38;;;3.46;83.32
66880;BME280;53789;51.392;10.234;2023-04-15T01:44:37;97338.91;;;3.47;84.29
66880;BME280;53789;51.392;10.234;2023-04-15T01:44:58;97335.63;;;3.50;83.36
66880;BME280;53789;51.392;10.234;2023-04-15T01:45:18;97337.53;;;3.49;83.56
66880;BME280;53789;51.392;10.234;2023-04-15T01:45:38;97332.63;;;3.51;83.84
66880;BME280;53789;51.392;10.234;2023-04-15T01:45:58;97336.97;;;3.52;84.07
66880;BME280;53789;51.392;10.234;2023-04-15T01:46:19;97333.97;;;3.54;83.85
66880;BME280;53789;51.392;10.234;2023-04-15T01:46:39;97335.59;;;3.55;83.88
66880;BME280;53789;51.392;10.234;2023-04-15T01:47:00;97331.78;;;3.56;83.88
66880;BME280;53789;51.392;10.234;2023-04-15T01:47:20;97334.53;;;3.56;83.82
66880;BME280;53789;51.392;10.234;2023-04-15T01:47:40;97332.31;;;3.58;84.41
66880;BME280;53789;51.392;10.234;2023-04-15T01:48:00;97329.31;;;3.60;84.19
66880;BME280;53789;51.392;10.234;2023-04-15T01:48:21;97337.19;;;3.61;83.60
66880;BME280;53789;51.392;10.234;2023-04-15T01:48:42;97331.75;;;3.61;83.87
66880;BME280;53789;51.392;10.234;2023-04-15T01:49:02;97327.94;;;3.62;83.69
66880;BME280;53789;51.392;10.234;2023-04-15T01:49:22;97335.81;;;3.64;84.19
66880;BME280;53789;51.392;10.234;2023-04-15T01:49:43;97331.19;;;3.64;83.89